sensor_id;sensor_type;location;lat;lon;timestamp;pressure;altitude;pressure_sealevel;temperature;humidity
62011;BME280;47967;51.756;10.174;2022-12-19T05:01:11;100365.47;;;2.32;69.94
62011;BME280;47967;51.756;10.174;2022-12-19T05:05:15;100357.72;;;2.29;69.70
62011;BME280;47967;51.756;10.174;2022-12-19T05:09:18;100363.75;;;2.31;69.67
62011;BME280;47967;51.756;10.174;2022-12-19T05:13:21;100345.13;;;2.31;69.77
62011;BME280;47967;51.756;10.174;2022-12-19T05:17:25;100339.91;;;2.51;69.69
62011;BME280;47967;51.756;10.174;2022-12-19T05:21:27;100338.50;;;2.47;69.64
62011;BME280;47967;51.756;10.174;2022-12-19T05:25:30;100342.31;;;2.54;69.59
62011;BME280;47967;51.756;10.174;2022-12-19T05:29:40;100353.53;;;2.58;69.36
62011;BME280;47967;51.756;10.174;2022-12-19T05:33:45;100359.84;;;2.56;69.89
62011;BME280;47967;51.756;10.174;2022-12-19T05:37:47;100357.19;;;2.56;69.31
62011;BME280;47967;51.756;10.174;2022-12-19T05:41:50;100358.41;;;2.52;69.13
62011;BME280;47967;51.756;10.174;2022-12-19T05:45:53;100349.28;;;2.55;68.86
62011;BME280;47967;51.756;10.174;2022-12-19T05:49:57;100347.34;;;2.57;69.55
62011;BME280;47967;51.756;10.174;2022-12-19T05:53:59;100337.84;;;2.64;69.12
62011;BME280;47967;51.756;10.174;2022-12-19T05:58:02;100336.97;;;2.54;69.57
62011;BME280;47967;51.756;10.174;2022-12-19T06:02:05;100310.44;;;2.52;69.14
62011;BME280;47967;51.756;10.174;2022-12-19T06:06:11;100315.00;;;2.62;70.18
62011;BME280;47967;51.756;10.174;2022-12-19T06:10:14;100304.03;;;2.65;70.21
62011;BME280;47967;51.756;10.174;2022-12-19T06:14:17;100303.19;;;2.54;70.21
62011;BME280;47967;51.756;10.174;2022-12-19T06:18:20;100309.81;;;2.60;70.81
62011;BME280;47967;51.756;10.174;2022-12-19T06:22:24;100307.25;;;2.59;71.34
62011;BME280;47967;51.756;10.174;2022-12-19T06:26:27;100317.91;;;2.59;72.16
62011;BME280;47967;51.756;10.174;2022-12-19T06:30:30;100301.19;;;2.47;72.55
62011;BME280;47967;51.756;10.174;2022-12-19T06:34:32;100311.88;;;2.56;73.44
62011;BME280;47967;51.756;10.174;2022-12-19T06:38:57;100305.88;;;2.64;73.92
62011;BME280;47967;51.756;10.174;2022-12-19T06:43:00;100299.03;;;2.71;73.92
62011;BME280;47967;51.756;10.174;2022-12-19T06:47:02;100301.28;;;2.66;73.74
62011;BME280;47967;51.756;10.174;2022-12-19T06:51:05;100304.03;;;2.65;74.25
62011;BME280;47967;51.756;10.174;2022-12-19T06:55:09;100300.72;;;2.72;74.42
62011;BME280;47967;51.756;10.174;2022-12-19T06:59:14;100301.94;;;2.68;74.41
62011;BME280;47967;51.756;10.174;2022-12-19T07:03:21;100306.72;;;2.75;74.72
62011;BME280;47967;51.756;10.174;2022-12-19T07:07:26;100306.03;;;2.63;75.18
62011;BME280;47967;51.756;10.174;2022-12-19T07:11:31;100293.25;;;2.56;75.61
62011;BME280;47967;51.756;10.174;2022-12-19T07:15:34;100299.13;;;2.50;76.32
62011;BME280;47967;51.756;10.174;2022-12-19T07:19:38;100298.28;;;2.60;76.64
62011;BME280;47967;51.756;10.174;2022-12-19T07:23:41;100298.16;;;2.61;76.80
62011;BME280;47967;51.756;10.174;2022-12-19T07:27:46;100300.44;;;2.76;76.67
62011;BME280;47967;51.756;10.174;2022-12-19T07:31:49;100299.31;;;2.78;76.84
62011;BME280;47967;51.756;10.174;2022-12-19T07:35:51;100295.59;;;2.91;77.44
62011;BME280;47967;51.756;10.174;2022-12-19T07:39:54;100293.72;;;2.81;77.80
62011;BME280;47967;51.756;10.174;2022-12-19T07:43:58;100296.41;;;2.91;77.86
62011;BME280;47967;51.756;10.174;2022-12-19T07:48:01;100292.47;;;2.85;78.00
62011;BME280;47967;51.756;10.174;2022-12-19T07:52:04;100296.66;;;2.88;77.95
62011;BME280;47967;51.756;10.174;2022-12-19T07:56:07;100301.31;;;2.86;78.03
62011;BME280;47967;51.756;10.174;2022-12-19T08:00:12;100300.78;;;2.92;78.39
62011;BME280;47967;51.756;10.174;2022-12-19T08:04:14;100298.50;;;2.87;79.06
62011;BME280;47967;51.756;10.174;2022-12-19T08:08:17;100299.06;;;2.81;79.15
62011;BME280;47967;51.756;10.174;2022-12-19T08:12:20;100297.94;;;2.84;79.55
62011;BME280;47967;51.756;10.174;2022-12-19T08:16:25;100315.31;;;2.88;79.69
62011;BME280;47967;51.756;10.174;2022-12-19T08:20:28;100316.34;;;2.87;79.77
62011;BME280;47967;51.756;10.174;2022-12-19T08:24:31;100326.44;;;2.93;79.82
62011;BME280;47967;51.756;10.174;2022-12-19T08:28:34;100325.31;;;2.96;80.46
62011;BME280;47967;51.756;10.174;2022-12-19T08:32:39;100326.16;;;2.96;80.43
62011;BME280;47967;51.756;10.174;2022-12-19T08:36:42;100334.81;;;2.79;81.19
62011;BME280;47967;51.756;10.174;2022-12-19T08:40:50;100330.47;;;2.78;81.94
62011;BME280;47967;51.756;10.174;2022-12-19T08:44:53;100334.66;;;2.80;82.86
62011;BME280;47967;51.756;10.174;2022-12-19T08:48:57;100323.88;;;2.82;83.04
62011;BME280;47967;51.756;10.174;2022-12-19T08:53:00;100320.25;;;2.93;82.85
62011;BME280;47967;51.756;10.174;2022-12-19T08:57:03;100327.53;;;2.81;83.18
62011;BME280;47967;51.756;10.174;2022-12-19T09:01:07;100310.53;;;2.82;83.23
62011;BME280;47967;51.756;10.174;2022-12-19T09:05:11;100314.94;;;2.93;83.41
62011;BME280;47967;51.756;10.174;2022-12-19T09:09:34;100311.13;;;2.85;83.44
62011;BME280;47967;51.756;10.174;2022-12-19T09:13:38;100315.31;;;2.88;83.44
62011;BME280;47967;51.756;10.174;2022-12-19T09:17:41;100316.59;;;2.84;83.65
62011;BME280;47967;51.756;10.174;2022-12-19T09:21:45;100302.44;;;2.83;83.77
62011;BME280;47967;51.756;10.174;2022-12-19T09:25:48;100315.59;;;2.75;84.21
62011;BME280;47967;51.756;10.174;2022-12-19T09:29:51;100312.63;;;2.78;84.25
62011;BME280;47967;51.756;10.174;2022-12-19T09:33:53;100304.38;;;2.81;84.73
62011;BME280;47967;51.756;10.174;2022-12-19T09:37:58;100301.31;;;2.86;84.26
62011;BME280;47967;51.756;10.174;2022-12-19T09:42:16;100296.41;;;2.91;84.10
62011;BME280;47967;51.756;10.174;2022-12-19T09:46:28;100302.59;;;3.01;84.61
62011;BME280;47967;51.756;10.174;2022-12-19T09:50:44;100305.81;;;3.05;83.75
62011;BME280;47967;51.756;10.174;2022-12-19T09:54:55;100303.16;;;3.05;83.71
62011;BME280;47967;51.756;10.174;2022-12-19T09:59:03;100298.66;;;2.96;84.01
62011;BME280;47967;51.756;10.174;2022-12-19T10:03:17;100290.97;;;3.12;83.34
62011;BME280;47967;51.756;10.174;2022-12-19T10:07:23;100276.09;;;3.10;83.35
62011;BME280;47967;51.756;10.174;2022-12-19T10:11:58;100274.28;;;3.20;83.18
62011;BME280;47967;51.756;10.174;2022-12-19T10:16:29;100281.72;;;3.16;83.37
62011;BME280;47967;51.756;10.174;2022-12-19T10:20:40;100274.97;;;3.22;83.05
62011;BME280;47967;51.756;10.174;2022-12-19T10:24:54;100269.78;;;3.20;82.61
62011;BME280;47967;51.756;10.174;2022-12-19T10:33:43;100276.81;;;3.31;82.12
62011;BME280;47967;51.756;10.174;2022-12-19T10:37:51;100264.47;;;3.30;82.89
62011;BME280;47967;51.756;10.174;2022-12-19T10:42:14;100267.25;;;3.48;82.25
62011;BME280;47967;51.756;10.174;2022-12-19T10:46:34;100252.78;;;3.51;82.07
62011;BME280;47967;51.756;10.174;2022-12-19T10:50:38;100250.25;;;3.59;81.42
62011;BME280;47967;51.756;10.174;2022-12-19T10:54:42;100255.28;;;3.72;81.62
62011;BME280;47967;51.756;10.174;2022-12-19T10:58:44;100233.81;;;3.74;81.36
62011;BME280;47967;51.756;10.174;2022-12-19T11:02:50;100234.50;;;3.66;81.38
62011;BME280;47967;51.756;10.174;2022-12-19T11:07:17;100233.88;;;3.92;81.54
62011;BME280;47967;51.756;10.174;2022-12-19T11:11:20;100230.09;;;3.94;80.78
62011;BME280;47967;51.756;10.174;2022-12-19T11:15:46;100218.84;;;4.00;80.68
62011;BME280;47967;51.756;10.174;2022-12-19T11:20:13;100205.56;;;4.09;80.39
62011;BME280;47967;51.756;10.174;2022-12-19T11:24:41;100215.22;;;4.20;80.96
62011;BME280;47967;51.756;10.174;2022-12-19T11:29:16;100217.97;;;4.00;80.51
62011;BME280;47967;51.756;10.174;2022-12-19T11:33:42;100203.00;;;4.17;80.98
62011;BME280;47967;51.756;10.174;2022-12-19T11:37:51;100186.44;;;4.13;80.71
62011;BME280;47967;51.756;10.174;2022-12-19T11:41:59;100178.09;;;4.26;80.69
62011;BME280;47967;51.756;10.174;2022-12-19T11:46:11;100185.38;;;4.34;80.50
62011;BME280;47967;51.756;10.174;2022-12-19T11:50:26;100179.91;;;4.26;80.35
62011;BME280;47967;51.756;10.174;2022-12-19T11:54:33;100175.06;;;4.39;80.23
62011;BME280;47967;51.756;10.174;2022-12-19T11:58:37;100166.75;;;4.42;80.22
62011;BME280;47967;51.756;10.174;2022-12-19T12:02:57;100167.63;;;4.61;80.00
62011;BME280;47967;51.756;10.174;2022-12-19T12:07:07;100175.19;;;4.65;79.98
62011;BME280;47967;51.756;10.174;2022-12-19T12:11:39;100170.06;;;4.72;79.46
62011;BME280;47967;51.756;10.174;2022-12-19T12:16:08;100167.09;;;4.75;79.56
62011;BME280;47967;51.756;10.174;2022-12-19T12:20:36;100156.63;;;4.82;79.66
62011;BME280;47967;51.756;10.174;2022-12-19T12:25:13;100162.22;;;4.89;79.26
62011;BME280;47967;51.756;10.174;2022-12-19T12:29:47;100165.03;;;4.87;79.05
62011;BME280;47967;51.756;10.174;2022-12-19T12:34:27;100154.56;;;4.94;79.28
62011;BME280;47967;51.756;10.174;2022-12-19T12:39:03;100160.91;;;4.93;78.69
62011;BME280;47967;51.756;10.174;2022-12-19T12:43:16;100163.03;;;4.89;78.90
62011;BME280;47967;51.756;10.174;2022-12-19T12:47:26;100159.06;;;5.11;78.78
62011;BME280;47967;51.756;10.174;2022-12-19T12:51:30;100149.28;;;5.20;78.51
62011;BME280;47967;51.756;10.174;2022-12-19T12:55:36;100150.00;;;5.31;77.81
62011;BME280;47967;51.756;10.174;2022-12-19T12:59:44;100149.19;;;5.30;77.56
62011;BME280;47967;51.756;10.174;2022-12-19T13:03:53;100142.44;;;5.26;78.00
62011;BME280;47967;51.756;10.174;2022-12-19T13:07:57;100146.50;;;5.30;77.85
62011;BME280;47967;51.756;10.174;2022-12-19T13:12:02;100144.66;;;5.31;78.09
62011;BME280;47967;51.756;10.174;2022-12-19T13:16:47;100158.91;;;5.39;78.44
62011;BME280;47967;51.756;10.174;2022-12-19T13:20:51;100156.94;;;5.41;78.00
62011;BME280;47967;51.756;10.174;2022-12-19T13:24:56;100152.56;;;5.40;77.83
62011;BME280;47967;51.756;10.174;2022-12-19T13:29:24;100146.13;;;5.51;77.92
62011;BME280;47967;51.756;10.174;2022-12-19T13:33:46;100143.91;;;5.47;77.83
62011;BME280;47967;51.756;10.174;2022-12-19T13:37:59;100139.03;;;5.42;77.77
62011;BME280;47967;51.756;10.174;2022-12-19T13:42:25;100140.34;;;5.38;78.13
62011;BME280;47967;51.756;10.174;2022-12-19T13:46:46;100142.56;;;5.42;77.98
62011;BME280;47967;51.756;10.174;2022-12-19T13:50:50;100141.72;;;5.42;78.16
62011;BME280;47967;51.756;10.174;2022-12-19T13:54:57;100145.59;;;5.48;78.21
62011;BME280;47967;51.756;10.174;2022-12-19T13:59:01;100152.16;;;5.53;78.08
62011;BME280;47967;51.756;10.174;2022-12-19T14:03:10;100154.06;;;5.35;78.13
62011;BME280;47967;51.756;10.174;2022-12-19T14:07:33;100148.09;;;5.49;78.39
62011;BME280;47967;51.756;10.174;2022-12-19T14:11:40;100137.09;;;5.52;77.97
62011;BME280;47967;51.756;10.174;2022-12-19T14:16:04;100126.88;;;5.48;77.99
62011;BME280;47967;51.756;10.174;2022-12-19T14:20:20;100131.22;;;5.49;77.96
62011;BME280;47967;51.756;10.174;2022-12-19T14:24:54;100136.88;;;5.45;78.21
62011;BME280;47967;51.756;10.174;2022-12-19T14:29:22;100143.38;;;5.35;78.02
62011;BME280;47967;51.756;10.174;2022-12-19T14:33:48;100149.69;;;5.34;77.94
62011;BME280;47967;51.756;10.174;2022-12-19T14:38:16;100155.16;;;5.50;77.75
62011;BME280;47967;51.756;10.174;2022-12-19T14:42:40;100146.75;;;5.45;77.52
62011;BME280;47967;51.756;10.174;2022-12-19T14:47:23;100147.59;;;5.45;77.80
62011;BME280;47967;51.756;10.174;2022-12-19T14:51:46;100149.69;;;5.60;77.59
62011;BME280;47967;51.756;10.174;2022-12-19T14:56:11;100138.78;;;5.53;77.44
62011;BME280;47967;51.756;10.174;2022-12-19T15:00:42;100128.75;;;5.55;77.46
62011;BME280;47967;51.756;10.174;2022-12-19T15:05:12;100131.63;;;5.62;77.17
62011;BME280;47967;51.756;10.174;2022-12-19T15:09:17;100127.09;;;5.54;77.32
62011;BME280;47967;51.756;10.174;2022-12-19T15:13:41;100124.13;;;5.39;77.25
62011;BME280;47967;51.756;10.174;2022-12-19T15:18:18;100133.75;;;5.24;77.44
62011;BME280;47967;51.756;10.174;2022-12-19T15:22:22;100126.28;;;5.09;77.89
62011;BME280;47967;51.756;10.174;2022-12-19T15:26:26;100119.41;;;5.07;78.16
62011;BME280;47967;51.756;10.174;2022-12-19T15:30:32;100111.31;;;4.99;78.37
62011;BME280;47967;51.756;10.174;2022-12-19T15:34:37;100112.69;;;5.03;78.66
62011;BME280;47967;51.756;10.174;2022-12-19T15:38:52;100103.94;;;4.92;78.26
62011;BME280;47967;51.756;10.174;2022-12-19T15:42:56;100098.13;;;4.79;78.44
62011;BME280;47967;51.756;10.174;2022-12-19T15:47:00;100086.75;;;4.77;78.81
62011;BME280;47967;51.756;10.174;2022-12-19T15:51:04;100079.09;;;4.82;79.17
62011;BME280;47967;51.756;10.174;2022-12-19T15:55:12;100085.22;;;4.92;79.26
62011;BME280;47967;51.756;10.174;2022-12-19T15:59:22;100078.88;;;4.93;79.00
62011;BME280;47967;51.756;10.174;2022-12-19T16:03:32;100072.13;;;4.89;78.67
62011;BME280;47967;51.756;10.174;2022-12-19T16:07:36;100068.56;;;4.80;78.81
62011;BME280;47967;51.756;10.174;2022-12-19T16:11:39;100069.88;;;4.76;79.27
62011;BME280;47967;51.756;10.174;2022-12-19T16:15:42;100059.50;;;4.55;78.85
62011;BME280;47967;51.756;10.174;2022-12-19T16:19:45;100060.72;;;4.43;79.35
62011;BME280;47967;51.756;10.174;2022-12-19T16:23:48;100064.78;;;4.47;79.52
62011;BME280;47967;51.756;10.174;2022-12-19T16:27:53;100070.66;;;4.51;79.92
62011;BME280;47967;51.756;10.174;2022-12-19T16:31:57;100066.31;;;4.49;80.12
62011;BME280;47967;51.756;10.174;2022-12-19T16:36:02;100060.28;;;4.47;80.48
62011;BME280;47967;51.756;10.174;2022-12-19T16:40:12;100064.31;;;4.52;80.34
62011;BME280;47967;51.756;10.174;2022-12-19T16:44:19;100075.25;;;4.58;80.31
62011;BME280;47967;51.756;10.174;2022-12-19T16:48:24;100071.66;;;4.68;80.21
62011;BME280;47967;51.756;10.174;2022-12-19T16:52:27;100070.44;;;4.62;80.58
62011;BME280;47967;51.756;10.174;2022-12-19T16:56:33;100074.09;;;4.61;80.11
62011;BME280;47967;51.756;10.174;2022-12-19T17:00:38;100077.81;;;4.50;79.94
62011;BME280;47967;51.756;10.174;2022-12-19T17:04:41;100072.47;;;4.32;80.50
62011;BME280;47967;51.756;10.174;2022-12-19T17:08:50;100068.88;;;4.23;80.87
62011;BME280;47967;51.756;10.174;2022-12-19T17:12:54;100059.88;;;4.24;81.39
62011;BME280;47967;51.756;10.174;2022-12-19T17:16:59;100061.47;;;4.17;80.93
62011;BME280;47967;51.756;10.174;2022-12-19T17:21:02;100046.94;;;4.11;81.01
62011;BME280;47967;51.756;10.174;2022-12-19T17:25:14;100050.09;;;4.15;81.30
62011;BME280;47967;51.756;10.174;2022-12-19T17:29:17;100043.41;;;4.11;81.24
62011;BME280;47967;51.756;10.174;2022-12-19T17:33:29;100036.03;;;4.41;81.82
62011;BME280;47967;51.756;10.174;2022-12-19T17:37:34;100042.47;;;4.56;81.80
62011;BME280;47967;51.756;10.174;2022-12-19T17:41:36;100045.56;;;4.61;81.73
62011;BME280;47967;51.756;10.174;2022-12-19T17:45:40;100045.91;;;4.67;81.34
62011;BME280;47967;51.756;10.174;2022-12-19T17:49:44;100047.66;;;4.76;80.93
62011;BME280;47967;51.756;10.174;2022-12-19T17:53:48;100053.84;;;4.76;80.98
62011;BME280;47967;51.756;10.174;2022-12-19T17:57:51;100058.19;;;4.77;80.81
62011;BME280;47967;51.756;10.174;2022-12-19T18:01:55;100053.53;;;4.79;81.19
62011;BME280;47967;51.756;10.174;2022-12-19T18:05:59;100050.19;;;4.77;80.64
62011;BME280;47967;51.756;10.174;2022-12-19T18:10:13;100047.13;;;4.72;80.75
62011;BME280;47967;51.756;10.174;2022-12-19T18:14:16;100040.88;;;4.63;81.02
62011;BME280;47967;51.756;10.174;2022-12-19T18:18:24;100039.34;;;4.61;80.91
62011;BME280;47967;51.756;10.174;2022-12-19T18:22:29;100030.69;;;4.85;81.64
62011;BME280;47967;51.756;10.174;2022-12-19T18:26:32;100045.38;;;5.07;81.16
62011;BME280;47967;51.756;10.174;2022-12-19T18:30:35;100045.25;;;5.17;80.25
62011;BME280;47967;51.756;10.174;2022-12-19T18:34:38;100056.53;;;5.29;80.07
62011;BME280;47967;51.756;10.174;2022-12-19T18:38:42;100060.59;;;5.41;79.30
62011;BME280;47967;51.756;10.174;2022-12-19T18:42:45;100070.19;;;5.52;78.97
62011;BME280;47967;51.756;10.174;2022-12-19T18:46:51;100068.75;;;5.66;78.27
62011;BME280;47967;51.756;10.174;2022-12-19T18:50:55;100065.47;;;5.81;77.83
62011;BME280;47967;51.756;10.174;2022-12-19T18:54:59;100052.56;;;5.76;77.69
62011;BME280;47967;51.756;10.174;2022-12-19T18:59:02;100047.28;;;5.92;77.11
62011;BME280;47967;51.756;10.174;2022-12-19T19:03:09;100041.91;;;5.92;76.69
62011;BME280;47967;51.756;10.174;2022-12-19T19:07:13;100043.25;;;5.97;76.32
62011;BME280;47967;51.756;10.174;2022-12-19T19:11:17;100061.00;;;5.98;76.15
62011;BME280;47967;51.756;10.174;2022-12-19T19:15:27;100070.03;;;5.97;75.89
62011;BME280;47967;51.756;10.174;2022-12-19T19:19:30;100074.75;;;5.95;75.84
62011;BME280;47967;51.756;10.174;2022-12-19T19:23:36;100083.56;;;5.87;75.64
62011;BME280;47967;51.756;10.174;2022-12-19T19:27:40;100083.03;;;5.83;75.62
62011;BME280;47967;51.756;10.174;2022-12-19T19:31:45;100076.34;;;5.79;75.70
62011;BME280;47967;51.756;10.174;2022-12-19T19:35:51;100079.50;;;5.74;75.47
62011;BME280;47967;51.756;10.174;2022-12-19T19:39:54;100079.19;;;5.77;75.48
62011;BME280;47967;51.756;10.174;2022-12-19T19:43:59;100084.84;;;5.74;75.50
62011;BME280;47967;51.756;10.174;2022-12-19T19:48:01;100068.91;;;5.65;75.72
62011;BME280;47967;51.756;10.174;2022-12-19T19:52:04;100061.44;;;5.76;75.69
62011;BME280;47967;51.756;10.174;2022-12-19T19:56:07;100052.75;;;5.83;75.46
62011;BME280;47967;51.756;10.174;2022-12-19T20:00:13;100046.91;;;5.79;75.40
62011;BME280;47967;51.756;10.174;2022-12-19T20:04:16;100059.69;;;5.59;75.41
62011;BME280;47967;51.756;10.174;2022-12-19T20:08:18;100075.22;;;5.55;76.10
62011;BME280;47967;51.756;10.174;2022-12-19T20:12:21;100078.88;;;5.46;75.64
62011;BME280;47967;51.756;10.174;2022-12-19T20:16:25;100076.66;;;5.41;75.72
62011;BME280;47967;51.756;10.174;2022-12-19T20:20:28;100078.63;;;5.31;76.25
62011;BME280;47967;51.756;10.174;2022-12-19T20:24:31;100077.47;;;5.34;76.11
62011;BME280;47967;51.756;10.174;2022-12-19T20:28:34;100080.56;;;5.47;76.44
62011;BME280;47967;51.756;10.174;2022-12-19T20:32:47;100095.28;;;5.51;75.79
62011;BME280;47967;51.756;10.174;2022-12-19T20:36:50;100086.94;;;5.54;75.46
62011;BME280;47967;51.756;10.174;2022-12-19T20:40:52;100095.97;;;5.53;75.66
62011;BME280;47967;51.756;10.174;2022-12-19T20:44:56;100085.44;;;5.52;75.71
62011;BME280;47967;51.756;10.174;2022-12-19T20:49:00;100101.38;;;5.61;75.86
62011;BME280;47967;51.756;10.174;2022-12-19T20:53:03;100104.88;;;5.62;75.80
62011;BME280;47967;51.756;10.174;2022-12-19T20:57:05;100113.63;;;5.72;75.43
62011;BME280;47967;51.756;10.174;2022-12-19T21:01:10;100121.50;;;5.74;75.33
62011;BME280;47967;51.756;10.174;2022-12-19T21:05:15;100115.91;;;5.93;74.87
62011;BME280;47967;51.756;10.174;2022-12-19T21:09:20;100103.84;;;5.98;74.46
62011;BME280;47967;51.756;10.174;2022-12-19T21:13:22;100096.94;;;5.87;74.56
62011;BME280;47967;51.756;10.174;2022-12-19T21:17:25;100096.78;;;5.80;75.00
62011;BME280;47967;51.756;10.174;2022-12-19T21:21:29;100100.09;;;5.82;75.10
62011;BME280;47967;51.756;10.174;2022-12-19T21:25:32;100098.84;;;5.95;74.88
62011;BME280;47967;51.756;10.174;2022-12-19T21:29:35;100106.25;;;6.09;74.55
62011;BME280;47967;51.756;10.174;2022-12-19T21:33:37;100082.66;;;6.04;74.44
62011;BME280;47967;51.756;10.174;2022-12-19T21:37:42;100082.44;;;5.98;74.80
62011;BME280;47967;51.756;10.174;2022-12-19T21:41:50;100093.47;;;5.95;74.68
62011;BME280;47967;51.756;10.174;2022-12-19T21:46:02;100085.06;;;5.81;75.16
62011;BME280;47967;51.756;10.174;2022-12-19T21:50:06;100084.75;;;5.92;75.76
62011;BME280;47967;51.756;10.174;2022-12-19T21:54:11;100086.09;;;5.97;75.03
62011;BME280;47967;51.756;10.174;2022-12-19T21:58:14;100087.78;;;5.98;74.88
